ホバート の空港の天気 - METARとTAF

ホバート国際空港 ( YMHB / HBA ) - オーストラリア タスマニア州、Cambridge
飛行場実況気象(Metar)
観測時間05/30 03:30 AEST (05/29 17:30 UTC)
風向・風速北北西 4m/s
視程10km以上
天気現象
なし
気温12℃
湿度54%
気圧1018hPa
METARYMHB 291730Z AUTO 34008KT 9999 // NCD 12/03 Q1018 RF00.0/000.0
過去の天気等 Google飛行場航空写真 Wunderground天気予報

過去48時間のMETAR

飛行場予報(TAF)
発表時間: 5/30 02:37 AEST (5/29 16:37 UTC)
予報対象時間: 30日4時 AEST ~ 31日4時 AEST
風向・風速北 6m/s
視程10km以上
なし
30日13時 AEST から
風向・風速北 9m/s 瞬間風速 16m/s
視程10km以上
少しの雲 雲底高度 1370m
30日17時 AEST ~ 30日19時 AEST に徐々に
風向・風速北 8m/s 瞬間風速 13m/s
視程10km以上
少しの雲 雲底高度 1370m
31日2時 AEST から
風向・風速北 7m/s
視程10km以上
なし
TAF YMHB 291637Z 2918/3018 35012KT CAVOK
FM300300 36017G32KT 9999 FEW045
BECMG 3007/3009 36015G25KT 9999 FEW045
FM301600 36014KT CAVOK